Pinehurst, Texas
Current Conditions -  °F | °C
As of 6:53 AM on Monday 20 Oct 2014 (Local Time) from KDWH Reporting Station
Clear Clear  
Wind Chill: 16°   Ceiling: Unl
Heat Index: 16°   Visibility: 10mi
Dew Point: 14°   Wind: 3mph
Humidity: 90%   Direction: 50°NE
Pressure: 30.03"   Gusts: NA
Location:  30.19°N, 95.71°W
Report Text: KDWH 201153Z 05003KT 10SM CLR 16/14 A3003 RMK AO2 SLP169 T01560139 10189 20156 53005
Loading
Personal Weather Stations






























Interactive Weather Map
Tropical Storm Tracking
New forecast layout! Learn more

10-Day Weather Forecast

Advertisements
Track Severe Weather on mobile